sensor_id;sensor_type;location;lat;lon;timestamp;P1;durP1;ratioP1;P2;durP2;ratioP2
56114;SDS011;41988;53.020;6.576;2023-06-04T00:02:02;12.48;;;3.60;;
56114;SDS011;41988;53.020;6.576;2023-06-04T00:04:46;4.75;;;2.75;;
56114;SDS011;41988;53.020;6.576;2023-06-04T00:07:52;11.25;;;4.13;;
56114;SDS011;41988;53.020;6.576;2023-06-04T00:10:58;7.53;;;3.15;;
56114;SDS011;41988;53.020;6.576;2023-06-04T00:13:42;8.85;;;3.58;;
56114;SDS011;41988;53.020;6.576;2023-06-04T00:16:32;8.07;;;3.50;;
56114;SDS011;41988;53.020;6.576;2023-06-04T00:19:28;8.77;;;3.22;;
56114;SDS011;41988;53.020;6.576;2023-06-04T00:22:21;6.35;;;2.72;;
56114;SDS011;41988;53.020;6.576;2023-06-04T00:25:20;9.10;;;4.13;;
56114;SDS011;41988;53.020;6.576;2023-06-04T00:28:18;7.43;;;2.92;;
56114;SDS011;41988;53.020;6.576;2023-06-04T00:31:14;7.50;;;3.28;;
56114;SDS011;41988;53.020;6.576;2023-06-04T00:34:05;11.07;;;3.83;;
56114;SDS011;41988;53.020;6.576;2023-06-04T00:36:56;9.40;;;3.55;;
56114;SDS011;41988;53.020;6.576;2023-06-04T00:39:44;6.25;;;3.00;;
56114;SDS011;41988;53.020;6.576;2023-06-04T00:42:38;8.57;;;3.42;;
56114;SDS011;41988;53.020;6.576;2023-06-04T00:45:31;5.75;;;2.95;;
56114;SDS011;41988;53.020;6.576;2023-06-04T00:48:18;6.38;;;3.17;;
56114;SDS011;41988;53.020;6.576;2023-06-04T00:51:17;6.97;;;3.17;;
56114;SDS011;41988;53.020;6.576;2023-06-04T00:54:04;9.15;;;3.33;;
56114;SDS011;41988;53.020;6.576;2023-06-04T00:57:01;8.75;;;3.33;;
56114;SDS011;41988;53.020;6.576;2023-06-04T00:59:52;7.72;;;3.97;;
56114;SDS011;41988;53.020;6.576;2023-06-04T01:02:39;8.32;;;4.15;;
56114;SDS011;41988;53.020;6.576;2023-06-04T01:09:02;7.53;;;4.00;;
56114;SDS011;41988;53.020;6.576;2023-06-04T01:11:50;7.45;;;3.97;;
56114;SDS011;41988;53.020;6.576;2023-06-04T01:14:41;11.05;;;3.88;;
56114;SDS011;41988;53.020;6.576;2023-06-04T01:17:39;8.75;;;4.38;;
56114;SDS011;41988;53.020;6.576;2023-06-04T01:26:33;15.30;;;6.32;;
56114;SDS011;41988;53.020;6.576;2023-06-04T01:29:21;14.68;;;4.65;;
56114;SDS011;41988;53.020;6.576;2023-06-04T01:32:08;8.20;;;4.15;;
56114;SDS011;41988;53.020;6.576;2023-06-04T01:35:06;11.65;;;4.07;;
56114;SDS011;41988;53.020;6.576;2023-06-04T01:37:56;10.73;;;4.75;;
56114;SDS011;41988;53.020;6.576;2023-06-04T01:40:43;10.75;;;5.28;;
56114;SDS011;41988;53.020;6.576;2023-06-04T01:43:28;6.95;;;4.13;;
56114;SDS011;41988;53.020;6.576;2023-06-04T01:46:19;8.68;;;4.32;;
56114;SDS011;41988;53.020;6.576;2023-06-04T01:49:07;13.68;;;3.85;;
56114;SDS011;41988;53.020;6.576;2023-06-04T01:51:55;7.15;;;3.97;;
56114;SDS011;41988;53.020;6.576;2023-06-04T01:54:47;6.80;;;3.65;;
56114;SDS011;41988;53.020;6.576;2023-06-04T01:57:38;13.20;;;4.20;;
56114;SDS011;41988;53.020;6.576;2023-06-04T02:00:23;10.85;;;4.43;;
56114;SDS011;41988;53.020;6.576;2023-06-04T02:03:11;11.90;;;4.47;;
56114;SDS011;41988;53.020;6.576;2023-06-04T02:06:01;7.57;;;4.05;;
56114;SDS011;41988;53.020;6.576;2023-06-04T02:08:56;11.00;;;4.40;;
56114;SDS011;41988;53.020;6.576;2023-06-04T02:11:41;9.18;;;5.07;;
56114;SDS011;41988;53.020;6.576;2023-06-04T02:14:35;11.65;;;4.80;;
56114;SDS011;41988;53.020;6.576;2023-06-04T02:17:33;8.45;;;4.30;;
56114;SDS011;41988;53.020;6.576;2023-06-04T02:20:31;9.20;;;4.38;;
56114;SDS011;41988;53.020;6.576;2023-06-04T02:23:19;11.77;;;4.45;;
56114;SDS011;41988;53.020;6.576;2023-06-04T02:29:12;10.52;;;4.90;;
56114;SDS011;41988;53.020;6.576;2023-06-04T02:31:59;9.15;;;4.43;;
56114;SDS011;41988;53.020;6.576;2023-06-04T02:34:47;9.00;;;4.65;;
56114;SDS011;41988;53.020;6.576;2023-06-04T02:37:35;12.63;;;4.80;;
56114;SDS011;41988;53.020;6.576;2023-06-04T02:40:36;13.45;;;5.00;;
56114;SDS011;41988;53.020;6.576;2023-06-04T02:43:48;10.70;;;4.65;;
56114;SDS011;41988;53.020;6.576;2023-06-04T02:46:35;12.23;;;5.07;;
56114;SDS011;41988;53.020;6.576;2023-06-04T02:49:25;9.32;;;4.55;;
56114;SDS011;41988;53.020;6.576;2023-06-04T02:52:12;9.27;;;4.75;;
56114;SDS011;41988;53.020;6.576;2023-06-04T02:55:15;14.27;;;4.90;;
56114;SDS011;41988;53.020;6.576;2023-06-04T02:58:20;11.02;;;5.57;;
56114;SDS011;41988;53.020;6.576;2023-06-04T03:01:28;8.70;;;4.90;;
56114;SDS011;41988;53.020;6.576;2023-06-04T03:04:16;9.20;;;5.35;;
56114;SDS011;41988;53.020;6.576;2023-06-04T03:07:01;10.93;;;5.18;;
56114;SDS011;41988;53.020;6.576;2023-06-04T03:09:49;12.15;;;5.68;;
56114;SDS011;41988;53.020;6.576;2023-06-04T03:12:53;11.75;;;6.47;;
56114;SDS011;41988;53.020;6.576;2023-06-04T03:15:41;11.15;;;5.20;;
56114;SDS011;41988;53.020;6.576;2023-06-04T03:18:55;11.55;;;5.38;;
56114;SDS011;41988;53.020;6.576;2023-06-04T03:21:42;13.73;;;5.68;;
56114;SDS011;41988;53.020;6.576;2023-06-04T03:24:41;11.73;;;5.57;;
56114;SDS011;41988;53.020;6.576;2023-06-04T03:27:45;10.88;;;5.55;;
56114;SDS011;41988;53.020;6.576;2023-06-04T03:30:53;14.48;;;6.50;;
56114;SDS011;41988;53.020;6.576;2023-06-04T03:34:06;10.13;;;5.45;;
56114;SDS011;41988;53.020;6.576;2023-06-04T03:36:53;15.02;;;6.25;;
56114;SDS011;41988;53.020;6.576;2023-06-04T03:40:08;13.32;;;5.65;;
56114;SDS011;41988;53.020;6.576;2023-06-04T03:43:11;12.55;;;5.95;;
56114;SDS011;41988;53.020;6.576;2023-06-04T03:46:23;13.65;;;5.78;;
56114;SDS011;41988;53.020;6.576;2023-06-04T03:49:41;15.82;;;6.35;;
56114;SDS011;41988;53.020;6.576;2023-06-04T03:55:43;14.38;;;5.93;;
56114;SDS011;41988;53.020;6.576;2023-06-04T03:58:30;12.52;;;6.45;;
56114;SDS011;41988;53.020;6.576;2023-06-04T04:01:24;14.07;;;6.15;;
56114;SDS011;41988;53.020;6.576;2023-06-04T04:04:17;14.55;;;5.80;;
56114;SDS011;41988;53.020;6.576;2023-06-04T04:07:05;13.52;;;6.38;;
56114;SDS011;41988;53.020;6.576;2023-06-04T04:09:58;11.38;;;6.15;;
56114;SDS011;41988;53.020;6.576;2023-06-04T04:12:48;14.10;;;6.93;;
56114;SDS011;41988;53.020;6.576;2023-06-04T04:15:42;21.45;;;7.72;;
56114;SDS011;41988;53.020;6.576;2023-06-04T04:18:35;14.50;;;7.57;;
56114;SDS011;41988;53.020;6.576;2023-06-04T04:21:40;16.88;;;7.50;;
56114;SDS011;41988;53.020;6.576;2023-06-04T04:24:31;15.02;;;7.45;;
56114;SDS011;41988;53.020;6.576;2023-06-04T04:27:31;16.77;;;7.88;;
56114;SDS011;41988;53.020;6.576;2023-06-04T04:30:28;20.27;;;8.90;;
56114;SDS011;41988;53.020;6.576;2023-06-04T04:43:00;18.55;;;9.05;;
56114;SDS011;41988;53.020;6.576;2023-06-04T04:46:16;18.83;;;9.15;;
56114;SDS011;41988;53.020;6.576;2023-06-04T04:49:01;20.38;;;10.02;;
56114;SDS011;41988;53.020;6.576;2023-06-04T04:51:54;23.70;;;9.88;;
56114;SDS011;41988;53.020;6.576;2023-06-04T04:54:45;18.70;;;9.45;;
56114;SDS011;41988;53.020;6.576;2023-06-04T04:57:32;26.38;;;9.98;;
56114;SDS011;41988;53.020;6.576;2023-06-04T05:00:19;18.23;;;8.63;;
56114;SDS011;41988;53.020;6.576;2023-06-04T05:03:24;23.52;;;9.70;;
56114;SDS011;41988;53.020;6.576;2023-06-04T05:06:17;17.92;;;8.82;;
56114;SDS011;41988;53.020;6.576;2023-06-04T05:09:04;21.05;;;9.35;;
56114;SDS011;41988;53.020;6.576;2023-06-04T05:11:56;21.35;;;10.23;;
56114;SDS011;41988;53.020;6.576;2023-06-04T05:14:47;21.52;;;8.70;;
56114;SDS011;41988;53.020;6.576;2023-06-04T05:17:34;18.20;;;7.90;;
56114;SDS011;41988;53.020;6.576;2023-06-04T05:20:27;21.17;;;8.27;;
56114;SDS011;41988;53.020;6.576;2023-06-04T05:26:54;17.83;;;7.35;;
56114;SDS011;41988;53.020;6.576;2023-06-04T05:29:56;20.27;;;7.55;;
56114;SDS011;41988;53.020;6.576;2023-06-04T05:32:43;14.27;;;7.20;;
56114;SDS011;41988;53.020;6.576;2023-06-04T05:35:48;13.88;;;6.93;;
56114;SDS011;41988;53.020;6.576;2023-06-04T05:38:40;12.43;;;6.93;;
56114;SDS011;41988;53.020;6.576;2023-06-04T05:41:30;12.15;;;7.03;;
56114;SDS011;41988;53.020;6.576;2023-06-04T05:44:15;13.65;;;5.43;;
56114;SDS011;41988;53.020;6.576;2023-06-04T05:47:02;11.43;;;6.20;;
56114;SDS011;41988;53.020;6.576;2023-06-04T05:49:47;14.00;;;5.93;;
56114;SDS011;41988;53.020;6.576;2023-06-04T05:52:40;9.77;;;5.57;;
56114;SDS011;41988;53.020;6.576;2023-06-04T05:55:45;15.18;;;5.80;;
56114;SDS011;41988;53.020;6.576;2023-06-04T05:58:37;13.32;;;5.30;;
56114;SDS011;41988;53.020;6.576;2023-06-04T06:01:27;12.48;;;5.15;;
56114;SDS011;41988;53.020;6.576;2023-06-04T06:04:13;11.70;;;5.22;;
56114;SDS011;41988;53.020;6.576;2023-06-04T06:07:03;10.15;;;4.72;;
56114;SDS011;41988;53.020;6.576;2023-06-04T06:09:51;14.25;;;4.57;;
56114;SDS011;41988;53.020;6.576;2023-06-04T06:12:42;12.05;;;3.63;;
56114;SDS011;41988;53.020;6.576;2023-06-04T06:15:36;9.55;;;3.72;;
56114;SDS011;41988;53.020;6.576;2023-06-04T06:18:38;14.68;;;4.70;;
56114;SDS011;41988;53.020;6.576;2023-06-04T06:21:34;10.25;;;3.42;;
56114;SDS011;41988;53.020;6.576;2023-06-04T06:24:38;16.92;;;3.58;;
56114;SDS011;41988;53.020;6.576;2023-06-04T06:30:36;8.95;;;3.00;;
56114;SDS011;41988;53.020;6.576;2023-06-04T06:33:26;10.77;;;3.70;;
56114;SDS011;41988;53.020;6.576;2023-06-04T06:36:30;7.32;;;3.08;;
56114;SDS011;41988;53.020;6.576;2023-06-04T06:39:43;9.52;;;3.13;;
56114;SDS011;41988;53.020;6.576;2023-06-04T06:42:33;9.50;;;3.10;;
56114;SDS011;41988;53.020;6.576;2023-06-04T06:45:36;11.05;;;3.03;;
56114;SDS011;41988;53.020;6.576;2023-06-04T06:48:31;11.00;;;3.92;;
56114;SDS011;41988;53.020;6.576;2023-06-04T06:51:29;8.38;;;2.60;;
56114;SDS011;41988;53.020;6.576;2023-06-04T06:54:16;8.98;;;2.80;;
56114;SDS011;41988;53.020;6.576;2023-06-04T06:57:12;10.10;;;2.90;;
56114;SDS011;41988;53.020;6.576;2023-06-04T07:00:08;10.27;;;3.03;;
56114;SDS011;41988;53.020;6.576;2023-06-04T07:06:13;11.85;;;2.50;;
56114;SDS011;41988;53.020;6.576;2023-06-04T07:09:00;9.95;;;2.65;;
56114;SDS011;41988;53.020;6.576;2023-06-04T07:12:00;6.13;;;2.42;;
56114;SDS011;41988;53.020;6.576;2023-06-04T07:15:07;11.30;;;3.30;;
56114;SDS011;41988;53.020;6.576;2023-06-04T07:18:02;5.70;;;2.25;;
56114;SDS011;41988;53.020;6.576;2023-06-04T07:20:47;8.73;;;2.35;;
56114;SDS011;41988;53.020;6.576;2023-06-04T07:23:45;6.97;;;2.03;;
56114;SDS011;41988;53.020;6.576;2023-06-04T07:26:33;9.20;;;2.80;;
56114;SDS011;41988;53.020;6.576;2023-06-04T07:29:20;7.80;;;2.50;;
56114;SDS011;41988;53.020;6.576;2023-06-04T07:32:05;8.90;;;3.38;;
56114;SDS011;41988;53.020;6.576;2023-06-04T07:34:55;9.48;;;2.30;;
56114;SDS011;41988;53.020;6.576;2023-06-04T07:37:42;7.32;;;2.53;;
56114;SDS011;41988;53.020;6.576;2023-06-04T07:40:32;9.60;;;3.78;;
56114;SDS011;41988;53.020;6.576;2023-06-04T07:43:16;12.45;;;2.88;;
56114;SDS011;41988;53.020;6.576;2023-06-04T07:46:04;7.53;;;2.38;;
56114;SDS011;41988;53.020;6.576;2023-06-04T07:48:52;13.30;;;3.20;;
56114;SDS011;41988;53.020;6.576;2023-06-04T07:51:39;7.60;;;2.33;;
56114;SDS011;41988;53.020;6.576;2023-06-04T07:54:32;6.65;;;2.05;;
56114;SDS011;41988;53.020;6.576;2023-06-04T07:57:18;9.73;;;2.45;;
56114;SDS011;41988;53.020;6.576;2023-06-04T08:00:10;5.47;;;1.70;;
56114;SDS011;41988;53.020;6.576;2023-06-04T08:02:55;7.88;;;2.55;;
56114;SDS011;41988;53.020;6.576;2023-06-04T08:05:43;8.00;;;2.30;;
56114;SDS011;41988;53.020;6.576;2023-06-04T08:08:43;4.18;;;1.45;;
56114;SDS011;41988;53.020;6.576;2023-06-04T08:11:33;5.22;;;2.03;;
56114;SDS011;41988;53.020;6.576;2023-06-04T08:14:20;7.88;;;2.28;;
56114;SDS011;41988;53.020;6.576;2023-06-04T08:17:08;7.22;;;1.80;;
56114;SDS011;41988;53.020;6.576;2023-06-04T08:20:02;5.25;;;1.80;;
56114;SDS011;41988;53.020;6.576;2023-06-04T08:22:49;4.38;;;1.50;;
56114;SDS011;41988;53.020;6.576;2023-06-04T08:25:37;8.32;;;1.45;;
56114;SDS011;41988;53.020;6.576;2023-06-04T08:28:21;6.00;;;1.70;;
56114;SDS011;41988;53.020;6.576;2023-06-04T08:31:09;5.15;;;1.80;;
56114;SDS011;41988;53.020;6.576;2023-06-04T08:33:56;5.35;;;1.58;;
56114;SDS011;41988;53.020;6.576;2023-06-04T08:36:49;4.55;;;1.55;;
56114;SDS011;41988;53.020;6.576;2023-06-04T08:39:43;4.32;;;1.90;;
56114;SDS011;41988;53.020;6.576;2023-06-04T08:42:31;4.90;;;1.60;;
56114;SDS011;41988;53.020;6.576;2023-06-04T08:45:18;5.88;;;1.77;;
56114;SDS011;41988;53.020;6.576;2023-06-04T08:48:09;4.18;;;1.35;;
56114;SDS011;41988;53.020;6.576;2023-06-04T08:50:57;4.55;;;1.58;;
56114;SDS011;41988;53.020;6.576;2023-06-04T08:53:44;3.80;;;1.38;;
56114;SDS011;41988;53.020;6.576;2023-06-04T08:56:34;3.42;;;1.55;;
56114;SDS011;41988;53.020;6.576;2023-06-04T08:59:19;3.75;;;1.33;;
56114;SDS011;41988;53.020;6.576;2023-06-04T09:02:06;6.63;;;1.50;;
56114;SDS011;41988;53.020;6.576;2023-06-04T09:05:01;3.20;;;1.65;;
56114;SDS011;41988;53.020;6.576;2023-06-04T09:07:55;2.97;;;1.35;;
56114;SDS011;41988;53.020;6.576;2023-06-04T09:10:43;5.55;;;1.80;;
56114;SDS011;41988;53.020;6.576;2023-06-04T09:13:33;6.78;;;1.40;;
56114;SDS011;41988;53.020;6.576;2023-06-04T09:16:26;3.53;;;1.55;;
56114;SDS011;41988;53.020;6.576;2023-06-04T09:19:10;6.30;;;1.50;;
56114;SDS011;41988;53.020;6.576;2023-06-04T09:21:58;3.42;;;1.75;;
56114;SDS011;41988;53.020;6.576;2023-06-04T09:24:46;2.85;;;1.65;;
56114;SDS011;41988;53.020;6.576;2023-06-04T09:27:39;5.65;;;1.55;;
56114;SDS011;41988;53.020;6.576;2023-06-04T09:30:24;5.00;;;1.75;;
56114;SDS011;41988;53.020;6.576;2023-06-04T09:33:09;4.70;;;2.13;;
56114;SDS011;41988;53.020;6.576;2023-06-04T09:35:56;5.13;;;1.30;;
56114;SDS011;41988;53.020;6.576;2023-06-04T09:38:43;4.85;;;1.40;;
56114;SDS011;41988;53.020;6.576;2023-06-04T09:41:29;4.28;;;1.63;;
56114;SDS011;41988;53.020;6.576;2023-06-04T09:44:14;3.30;;;1.50;;
56114;SDS011;41988;53.020;6.576;2023-06-04T09:46:59;5.95;;;1.50;;
56114;SDS011;41988;53.020;6.576;2023-06-04T09:49:48;2.83;;;1.30;;
56114;SDS011;41988;53.020;6.576;2023-06-04T09:52:36;4.40;;;1.50;;
56114;SDS011;41988;53.020;6.576;2023-06-04T09:55:23;6.18;;;1.70;;
56114;SDS011;41988;53.020;6.576;2023-06-04T09:58:09;4.82;;;1.42;;
56114;SDS011;41988;53.020;6.576;2023-06-04T10:00:56;4.43;;;1.83;;
56114;SDS011;41988;53.020;6.576;2023-06-04T10:03:45;4.45;;;1.40;;
56114;SDS011;41988;53.020;6.576;2023-06-04T10:06:35;3.13;;;1.42;;
56114;SDS011;41988;53.020;6.576;2023-06-04T10:09:23;4.22;;;1.40;;
56114;SDS011;41988;53.020;6.576;2023-06-04T10:12:09;4.90;;;1.50;;
56114;SDS011;41988;53.020;6.576;2023-06-04T10:15:05;3.03;;;1.30;;
56114;SDS011;41988;53.020;6.576;2023-06-04T10:17:52;5.60;;;1.45;;
56114;SDS011;41988;53.020;6.576;2023-06-04T10:20:38;3.60;;;1.52;;
56114;SDS011;41988;53.020;6.576;2023-06-04T10:23:23;4.05;;;1.70;;
56114;SDS011;41988;53.020;6.576;2023-06-04T10:26:08;4.57;;;1.73;;
56114;SDS011;41988;53.020;6.576;2023-06-04T10:28:56;4.70;;;1.60;;
56114;SDS011;41988;53.020;6.576;2023-06-04T10:31:41;3.72;;;1.60;;
56114;SDS011;41988;53.020;6.576;2023-06-04T10:34:28;3.45;;;1.35;;
56114;SDS011;41988;53.020;6.576;2023-06-04T10:37:46;3.75;;;1.40;;
56114;SDS011;41988;53.020;6.576;2023-06-04T10:40:31;4.30;;;1.27;;
56114;SDS011;41988;53.020;6.576;2023-06-04T10:43:16;4.85;;;1.50;;
56114;SDS011;41988;53.020;6.576;2023-06-04T10:46:10;5.25;;;1.60;;
56114;SDS011;41988;53.020;6.576;2023-06-04T10:48:56;4.15;;;1.80;;
56114;SDS011;41988;53.020;6.576;2023-06-04T10:51:43;4.93;;;1.63;;
56114;SDS011;41988;53.020;6.576;2023-06-04T10:54:28;4.22;;;1.48;;
56114;SDS011;41988;53.020;6.576;2023-06-04T10:57:16;3.50;;;1.75;;
56114;SDS011;41988;53.020;6.576;2023-06-04T11:00:18;3.65;;;1.52;;
56114;SDS011;41988;53.020;6.576;2023-06-04T11:03:06;3.75;;;1.50;;
56114;SDS011;41988;53.020;6.576;2023-06-04T11:05:50;2.95;;;1.30;;
56114;SDS011;41988;53.020;6.576;2023-06-04T11:08:35;7.20;;;1.38;;
56114;SDS011;41988;53.020;6.576;2023-06-04T11:11:24;5.82;;;2.45;;
56114;SDS011;41988;53.020;6.576;2023-06-04T11:14:11;3.45;;;1.20;;
56114;SDS011;41988;53.020;6.576;2023-06-04T11:16:56;4.47;;;1.58;;
56114;SDS011;41988;53.020;6.576;2023-06-04T11:19:41;3.90;;;1.60;;
56114;SDS011;41988;53.020;6.576;2023-06-04T11:22:25;3.78;;;1.20;;
56114;SDS011;41988;53.020;6.576;2023-06-04T11:25:10;5.45;;;1.38;;
56114;SDS011;41988;53.020;6.576;2023-06-04T11:27:55;3.88;;;1.60;;
56114;SDS011;41988;53.020;6.576;2023-06-04T11:30:40;3.47;;;1.40;;
56114;SDS011;41988;53.020;6.576;2023-06-04T11:33:25;7.18;;;1.50;;
56114;SDS011;41988;53.020;6.576;2023-06-04T11:36:09;7.00;;;1.70;;
56114;SDS011;41988;53.020;6.576;2023-06-04T11:38:58;4.53;;;1.65;;
56114;SDS011;41988;53.020;6.576;2023-06-04T11:41:42;3.70;;;1.30;;
56114;SDS011;41988;53.020;6.576;2023-06-04T11:44:27;5.63;;;1.80;;
56114;SDS011;41988;53.020;6.576;2023-06-04T11:47:13;3.17;;;1.38;;
56114;SDS011;41988;53.020;6.576;2023-06-04T11:49:59;3.78;;;1.20;;
56114;SDS011;41988;53.020;6.576;2023-06-04T11:52:43;3.90;;;1.35;;
56114;SDS011;41988;53.020;6.576;2023-06-04T11:55:28;4.10;;;1.70;;
56114;SDS011;41988;53.020;6.576;2023-06-04T11:58:13;4.78;;;1.50;;
56114;SDS011;41988;53.020;6.576;2023-06-04T12:00:57;4.38;;;1.70;;
56114;SDS011;41988;53.020;6.576;2023-06-04T12:03:42;3.65;;;1.65;;
56114;SDS011;41988;53.020;6.576;2023-06-04T12:06:26;2.75;;;1.10;;
56114;SDS011;41988;53.020;6.576;2023-06-04T12:09:19;4.28;;;1.45;;
56114;SDS011;41988;53.020;6.576;2023-06-04T12:12:04;6.38;;;1.95;;
56114;SDS011;41988;53.020;6.576;2023-06-04T12:14:56;5.70;;;1.50;;
56114;SDS011;41988;53.020;6.576;2023-06-04T12:17:50;3.22;;;1.23;;
56114;SDS011;41988;53.020;6.576;2023-06-04T12:20:35;4.72;;;1.30;;
56114;SDS011;41988;53.020;6.576;2023-06-04T12:23:20;5.53;;;1.42;;
56114;SDS011;41988;53.020;6.576;2023-06-04T12:26:05;4.60;;;1.50;;
56114;SDS011;41988;53.020;6.576;2023-06-04T12:32:07;7.68;;;1.55;;
56114;SDS011;41988;53.020;6.576;2023-06-04T12:34:52;3.38;;;1.60;;
56114;SDS011;41988;53.020;6.576;2023-06-04T12:37:37;3.97;;;1.67;;
56114;SDS011;41988;53.020;6.576;2023-06-04T12:40:23;3.70;;;1.50;;
56114;SDS011;41988;53.020;6.576;2023-06-04T12:43:07;5.10;;;1.50;;
56114;SDS011;41988;53.020;6.576;2023-06-04T12:45:52;4.03;;;1.60;;
56114;SDS011;41988;53.020;6.576;2023-06-04T12:48:36;5.10;;;1.65;;
56114;SDS011;41988;53.020;6.576;2023-06-04T12:51:21;4.72;;;1.40;;
56114;SDS011;41988;53.020;6.576;2023-06-04T12:54:05;5.32;;;1.50;;
56114;SDS011;41988;53.020;6.576;2023-06-04T12:56:50;5.93;;;1.70;;
56114;SDS011;41988;53.020;6.576;2023-06-04T12:59:34;4.05;;;1.50;;
56114;SDS011;41988;53.020;6.576;2023-06-04T13:02:19;5.35;;;1.25;;
56114;SDS011;41988;53.020;6.576;2023-06-04T13:05:04;4.15;;;1.70;;
56114;SDS011;41988;53.020;6.576;2023-06-04T13:07:49;3.53;;;1.40;;
56114;SDS011;41988;53.020;6.576;2023-06-04T13:10:34;3.33;;;1.42;;
56114;SDS011;41988;53.020;6.576;2023-06-04T13:13:19;3.17;;;1.60;;
56114;SDS011;41988;53.020;6.576;2023-06-04T13:16:04;4.68;;;1.73;;
56114;SDS011;41988;53.020;6.576;2023-06-04T13:18:48;4.07;;;1.50;;
56114;SDS011;41988;53.020;6.576;2023-06-04T13:21:33;4.43;;;1.42;;
56114;SDS011;41988;53.020;6.576;2023-06-04T13:24:19;3.20;;;1.58;;
56114;SDS011;41988;53.020;6.576;2023-06-04T13:27:03;3.85;;;1.70;;
56114;SDS011;41988;53.020;6.576;2023-06-04T13:29:48;4.60;;;1.42;;
56114;SDS011;41988;53.020;6.576;2023-06-04T13:32:33;3.10;;;1.38;;
56114;SDS011;41988;53.020;6.576;2023-06-04T13:35:17;5.55;;;1.80;;
56114;SDS011;41988;53.020;6.576;2023-06-04T13:38:03;5.15;;;1.70;;
56114;SDS011;41988;53.020;6.576;2023-06-04T13:40:49;3.03;;;1.52;;
56114;SDS011;41988;53.020;6.576;2023-06-04T13:43:34;3.88;;;1.13;;
56114;SDS011;41988;53.020;6.576;2023-06-04T13:46:18;7.75;;;1.52;;
56114;SDS011;41988;53.020;6.576;2023-06-04T13:49:03;4.13;;;1.92;;
56114;SDS011;41988;53.020;6.576;2023-06-04T13:51:49;6.25;;;1.38;;
56114;SDS011;41988;53.020;6.576;2023-06-04T13:54:33;5.28;;;1.40;;
56114;SDS011;41988;53.020;6.576;2023-06-04T13:57:18;4.25;;;1.27;;
56114;SDS011;41988;53.020;6.576;2023-06-04T14:00:02;3.53;;;1.23;;
56114;SDS011;41988;53.020;6.576;2023-06-04T14:02:48;5.28;;;1.63;;
56114;SDS011;41988;53.020;6.576;2023-06-04T14:05:33;4.32;;;1.30;;
56114;SDS011;41988;53.020;6.576;2023-06-04T14:08:17;6.20;;;1.60;;
56114;SDS011;41988;53.020;6.576;2023-06-04T14:11:02;3.55;;;1.38;;
56114;SDS011;41988;53.020;6.576;2023-06-04T14:13:46;5.63;;;2.22;;
56114;SDS011;41988;53.020;6.576;2023-06-04T14:16:31;6.18;;;1.50;;
56114;SDS011;41988;53.020;6.576;2023-06-04T14:19:19;4.10;;;1.50;;
56114;SDS011;41988;53.020;6.576;2023-06-04T14:22:11;4.70;;;1.50;;
56114;SDS011;41988;53.020;6.576;2023-06-04T14:24:59;3.60;;;1.60;;
56114;SDS011;41988;53.020;6.576;2023-06-04T14:27:44;3.58;;;1.50;;
56114;SDS011;41988;53.020;6.576;2023-06-04T14:30:29;4.95;;;1.38;;
56114;SDS011;41988;53.020;6.576;2023-06-04T14:33:14;3.17;;;1.45;;
56114;SDS011;41988;53.020;6.576;2023-06-04T14:35:58;4.70;;;1.58;;
56114;SDS011;41988;53.020;6.576;2023-06-04T14:38:43;4.15;;;1.50;;
56114;SDS011;41988;53.020;6.576;2023-06-04T14:41:28;8.52;;;1.80;;
56114;SDS011;41988;53.020;6.576;2023-06-04T14:44:13;5.40;;;1.90;;
56114;SDS011;41988;53.020;6.576;2023-06-04T14:46:58;5.68;;;1.65;;
56114;SDS011;41988;53.020;6.576;2023-06-04T14:49:43;4.43;;;1.55;;
56114;SDS011;41988;53.020;6.576;2023-06-04T14:52:27;6.70;;;1.60;;
56114;SDS011;41988;53.020;6.576;2023-06-04T14:55:12;11.23;;;3.00;;
56114;SDS011;41988;53.020;6.576;2023-06-04T14:57:57;7.10;;;1.50;;
56114;SDS011;41988;53.020;6.576;2023-06-04T15:00:42;3.95;;;1.58;;
56114;SDS011;41988;53.020;6.576;2023-06-04T15:03:26;4.70;;;2.03;;
56114;SDS011;41988;53.020;6.576;2023-06-04T15:06:11;3.90;;;1.48;;
56114;SDS011;41988;53.020;6.576;2023-06-04T15:08:55;5.45;;;1.90;;
56114;SDS011;41988;53.020;6.576;2023-06-04T15:11:41;3.67;;;1.50;;
56114;SDS011;41988;53.020;6.576;2023-06-04T15:14:26;4.20;;;1.40;;
56114;SDS011;41988;53.020;6.576;2023-06-04T15:17:16;4.90;;;1.67;;
56114;SDS011;41988;53.020;6.576;2023-06-04T15:20:01;4.38;;;1.63;;
56114;SDS011;41988;53.020;6.576;2023-06-04T15:22:46;6.43;;;1.63;;
56114;SDS011;41988;53.020;6.576;2023-06-04T15:25:33;5.40;;;1.50;;
56114;SDS011;41988;53.020;6.576;2023-06-04T15:28:18;4.70;;;1.60;;
56114;SDS011;41988;53.020;6.576;2023-06-04T15:31:03;4.03;;;1.27;;
56114;SDS011;41988;53.020;6.576;2023-06-04T15:33:48;4.85;;;2.05;;
56114;SDS011;41988;53.020;6.576;2023-06-04T15:36:32;4.70;;;1.58;;
56114;SDS011;41988;53.020;6.576;2023-06-04T15:39:17;4.85;;;1.38;;
56114;SDS011;41988;53.020;6.576;2023-06-04T15:42:02;6.55;;;1.50;;
56114;SDS011;41988;53.020;6.576;2023-06-04T15:44:47;4.07;;;1.35;;
56114;SDS011;41988;53.020;6.576;2023-06-04T15:47:31;6.10;;;1.80;;
56114;SDS011;41988;53.020;6.576;2023-06-04T15:50:18;4.38;;;1.90;;
56114;SDS011;41988;53.020;6.576;2023-06-04T15:53:03;4.05;;;1.83;;
56114;SDS011;41988;53.020;6.576;2023-06-04T15:55:49;5.25;;;1.40;;
56114;SDS011;41988;53.020;6.576;2023-06-04T15:58:33;5.05;;;1.50;;
56114;SDS011;41988;53.020;6.576;2023-06-04T16:01:18;4.13;;;1.42;;
56114;SDS011;41988;53.020;6.576;2023-06-04T16:04:03;4.70;;;1.52;;
56114;SDS011;41988;53.020;6.576;2023-06-04T16:06:53;3.75;;;1.95;;
56114;SDS011;41988;53.020;6.576;2023-06-04T16:09:38;5.65;;;1.77;;
56114;SDS011;41988;53.020;6.576;2023-06-04T16:12:22;4.43;;;1.60;;
56114;SDS011;41988;53.020;6.576;2023-06-04T16:15:07;4.22;;;1.63;;
56114;SDS011;41988;53.020;6.576;2023-06-04T16:17:52;4.80;;;1.67;;
56114;SDS011;41988;53.020;6.576;2023-06-04T16:20:37;3.67;;;1.40;;
56114;SDS011;41988;53.020;6.576;2023-06-04T16:23:22;9.35;;;2.17;;
56114;SDS011;41988;53.020;6.576;2023-06-04T16:26:15;3.85;;;1.60;;
56114;SDS011;41988;53.020;6.576;2023-06-04T16:29:02;5.40;;;2.05;;
56114;SDS011;41988;53.020;6.576;2023-06-04T16:31:47;8.80;;;2.00;;
56114;SDS011;41988;53.020;6.576;2023-06-04T16:34:41;4.68;;;1.90;;
56114;SDS011;41988;53.020;6.576;2023-06-04T16:37:28;6.47;;;1.55;;
56114;SDS011;41988;53.020;6.576;2023-06-04T16:40:19;4.57;;;2.10;;
56114;SDS011;41988;53.020;6.576;2023-06-04T16:43:04;5.78;;;2.05;;
56114;SDS011;41988;53.020;6.576;2023-06-04T16:45:50;5.32;;;1.95;;
56114;SDS011;41988;53.020;6.576;2023-06-04T16:48:34;7.40;;;1.77;;
56114;SDS011;41988;53.020;6.576;2023-06-04T16:51:22;5.30;;;1.70;;
56114;SDS011;41988;53.020;6.576;2023-06-04T16:54:06;4.78;;;1.98;;
56114;SDS011;41988;53.020;6.576;2023-06-04T16:56:51;4.97;;;1.98;;
56114;SDS011;41988;53.020;6.576;2023-06-04T16:59:36;6.82;;;1.80;;
56114;SDS011;41988;53.020;6.576;2023-06-04T17:02:21;5.55;;;2.00;;
56114;SDS011;41988;53.020;6.576;2023-06-04T17:05:05;6.90;;;2.17;;
56114;SDS011;41988;53.020;6.576;2023-06-04T17:07:51;4.30;;;1.92;;
56114;SDS011;41988;53.020;6.576;2023-06-04T17:10:35;5.70;;;1.80;;
56114;SDS011;41988;53.020;6.576;2023-06-04T17:13:20;11.43;;;2.80;;
56114;SDS011;41988;53.020;6.576;2023-06-04T17:16:05;6.78;;;2.00;;
56114;SDS011;41988;53.020;6.576;2023-06-04T17:18:52;6.20;;;2.13;;
56114;SDS011;41988;53.020;6.576;2023-06-04T17:21:54;7.05;;;2.25;;
56114;SDS011;41988;53.020;6.576;2023-06-04T17:24:48;7.60;;;1.73;;
56114;SDS011;41988;53.020;6.576;2023-06-04T17:27:36;5.55;;;2.03;;
56114;SDS011;41988;53.020;6.576;2023-06-04T17:30:21;5.45;;;1.80;;
56114;SDS011;41988;53.020;6.576;2023-06-04T17:33:09;6.53;;;1.90;;
56114;SDS011;41988;53.020;6.576;2023-06-04T17:35:54;5.20;;;1.70;;